Terminal Aerodrome Forecast
Issued by NWS

Home | Current Version | Previous Version | Text Only | Print | Product List | Glossary Off
Versions: 1 2 3 4 5 6 7 8 9 10 11 12 13 14 15 16 17 18 19 20 21 22 23 24 25 26 27 28 29 30

000
FTUS43 KLOT 300529
TAFGYY
TAF
KGYY 300529Z 3006/3106 06012G18KT 6SM -SHRA BR SCT030 OVC060
     FM300700 06014G20KT 4SM -SHRA SCT012 OVC030
      TEMPO 3007/3011 2SM -TSRA BKN012 OVC030CB
     FM301100 07012G18KT 3SM -SHRA SCT004 OVC007
     FM301900 05012KT 3SM -SHRA OVC005
      TEMPO 3019/3021 2SM -TSRA BKN005 OVC020CB
     FM310100 34010KT 2SM -DZ OVC005=

USA.gov is the U.S. government's official web portal to all federal, state and local government web resources and services.